createdAt,value
2023-04-14T00:00:08.930Z,8.75
2023-04-14T00:02:45.223Z,8.83
2023-04-14T00:05:15.781Z,8.63
2023-04-14T00:07:44.609Z,8.80
2023-04-14T00:10:15.701Z,8.89
2023-04-14T00:12:44.444Z,8.89
2023-04-14T00:15:13.796Z,8.86
2023-04-14T00:17:42.530Z,8.81
2023-04-14T00:20:12.006Z,8.89
2023-04-14T00:22:42.158Z,8.90
2023-04-14T00:25:11.448Z,8.88
2023-04-14T00:27:40.309Z,8.85
2023-04-14T00:30:11.445Z,8.89
2023-04-14T00:32:41.219Z,8.87
2023-04-14T00:35:10.577Z,8.92
2023-04-14T00:37:39.353Z,8.93
2023-04-14T00:40:12.036Z,8.90
2023-04-14T00:42:45.228Z,8.85
2023-04-14T00:45:15.616Z,8.90
2023-04-14T00:47:49.355Z,8.92
2023-04-14T00:50:20.889Z,8.94
2023-04-14T00:52:59.307Z,8.95
2023-04-14T00:55:31.044Z,8.95
2023-04-14T00:58:00.102Z,8.96
2023-04-14T01:00:29.048Z,8.96
2023-04-14T01:03:01.626Z,8.96
2023-04-14T01:05:30.725Z,8.96
2023-04-14T01:07:59.846Z,8.96
2023-04-14T01:10:42.144Z,8.80
2023-04-14T01:13:33.828Z,8.82
2023-04-14T01:16:19.234Z,8.83
2023-04-14T01:19:00.319Z,8.85
2023-04-14T01:21:42.869Z,8.89
2023-04-14T01:24:48.903Z,8.89
2023-04-14T01:27:42.060Z,8.92
2023-04-14T01:30:34.370Z,8.90
2023-04-14T01:33:09.344Z,8.88
2023-04-14T01:35:43.668Z,8.91
2023-04-14T01:38:22.122Z,8.92
2023-04-14T01:40:57.491Z,8.87
2023-04-14T01:43:33.389Z,8.87
2023-04-14T01:46:13.881Z,8.86
2023-04-14T01:48:45.787Z,8.89
2023-04-14T01:51:19.917Z,8.90
2023-04-14T01:53:52.133Z,8.85
2023-04-14T01:56:22.956Z,8.60
2023-04-14T01:58:54.547Z,8.51
2023-04-14T02:01:24.000Z,8.52
2023-04-14T02:03:54.751Z,8.63
2023-04-14T02:06:27.617Z,8.72
2023-04-14T02:08:58.076Z,8.76
2023-04-14T02:11:30.742Z,8.70
2023-04-14T02:14:03.344Z,8.73
2023-04-14T02:16:35.482Z,8.79
2023-04-14T02:19:06.936Z,8.82
2023-04-14T02:21:37.147Z,8.82
2023-04-14T02:24:06.617Z,8.83
2023-04-14T02:26:41.694Z,8.63
2023-04-14T02:29:16.540Z,8.65
2023-04-14T02:32:01.927Z,8.47
2023-04-14T02:34:39.537Z,8.50
2023-04-14T02:37:19.188Z,8.63
2023-04-14T02:40:02.153Z,8.70
2023-04-14T02:42:35.949Z,8.74
2023-04-14T02:45:10.539Z,8.78
2023-04-14T02:47:45.891Z,8.79
2023-04-14T02:50:20.651Z,8.69
2023-04-14T02:53:01.892Z,8.71
2023-04-14T02:55:37.723Z,8.70
2023-04-14T02:58:07.618Z,8.72
2023-04-14T03:00:41.919Z,8.74
2023-04-14T03:03:13.368Z,8.75
2023-04-14T03:05:46.530Z,8.72
2023-04-14T03:08:18.356Z,8.74
2023-04-14T03:10:53.102Z,8.75
2023-04-14T03:13:28.684Z,8.72
2023-04-14T03:15:59.742Z,8.50
2023-04-14T03:18:33.545Z,8.48
2023-04-14T03:21:05.935Z,8.56
2023-04-14T03:23:37.732Z,8.64
2023-04-14T03:26:18.550Z,8.68
2023-04-14T03:28:50.841Z,8.72
2023-04-14T03:31:22.442Z,8.60
2023-04-14T03:33:58.590Z,8.37
2023-04-14T03:36:36.770Z,8.48
2023-04-14T03:39:09.285Z,8.58
2023-04-14T03:41:51.736Z,8.50
2023-04-14T03:44:23.842Z,8.59
2023-04-14T03:46:54.671Z,8.65
2023-04-14T03:49:27.093Z,8.68
2023-04-14T03:57:17.645Z,8.64
2023-04-14T03:59:50.947Z,8.56
2023-04-14T04:02:24.736Z,8.63
2023-04-14T04:04:55.902Z,8.65
2023-04-14T04:07:28.612Z,8.51
2023-04-14T04:09:59.139Z,8.58
2023-04-14T04:12:31.070Z,8.57
2023-04-14T04:15:00.744Z,8.62
2023-04-14T04:17:33.930Z,8.64
2023-04-14T04:20:26.362Z,8.66
2023-04-14T04:23:02.926Z,8.51
2023-04-14T04:25:33.376Z,8.30
2023-04-14T04:28:11.278Z,8.44
2023-04-14T04:30:41.927Z,8.48
2023-04-14T04:34:28.968Z,8.51
2023-04-14T04:38:38.554Z,8.55
2023-04-14T04:41:22.188Z,8.46
2023-04-14T04:43:54.119Z,8.55
2023-04-14T04:46:45.461Z,8.58
2023-04-14T04:49:14.948Z,8.62
2023-04-14T04:51:44.478Z,8.65
2023-04-14T04:54:13.583Z,8.56
2023-04-14T04:56:42.369Z,8.63
2023-04-14T04:59:12.618Z,8.51
2023-04-14T05:01:43.498Z,8.49
2023-04-14T05:04:12.342Z,8.56
2023-04-14T05:06:41.101Z,8.63
2023-04-14T05:09:09.998Z,8.63
2023-04-14T05:11:38.671Z,8.70
2023-04-14T05:14:07.325Z,8.45
2023-04-14T05:16:38.714Z,8.44
2023-04-14T05:19:07.705Z,8.52
2023-04-14T05:21:36.600Z,8.62
2023-04-14T05:24:06.079Z,8.67
2023-04-14T05:26:57.833Z,8.72
2023-04-14T05:29:23.662Z,8.73
2023-04-14T05:32:07.602Z,8.71
2023-04-14T05:34:36.785Z,8.74
2023-04-14T05:37:06.144Z,8.76
2023-04-14T05:39:34.896Z,8.72
2023-04-14T05:42:03.582Z,8.76
2023-04-14T05:44:32.367Z,8.81
2023-04-14T05:47:01.726Z,8.83
2023-04-14T05:49:32.586Z,8.89
2023-04-14T05:52:01.289Z,8.73
2023-04-14T05:54:30.177Z,8.82
2023-04-14T05:56:59.968Z,8.89
2023-04-14T05:59:28.850Z,8.91
2023-04-14T06:01:57.704Z,8.96
2023-04-14T06:04:26.655Z,9.00
2023-04-14T06:06:58.668Z,8.96
2023-04-14T06:09:27.431Z,8.95
2023-04-14T06:11:56.752Z,9.00
2023-04-14T06:14:25.689Z,9.03
2023-04-14T06:16:54.527Z,9.04
2023-04-14T06:19:24.115Z,9.09
2023-04-14T06:21:53.939Z,9.12
2023-04-14T06:24:24.109Z,9.17
2023-04-14T06:26:53.197Z,9.20
2023-04-14T06:29:21.898Z,9.22
2023-04-14T06:31:54.953Z,9.22
2023-04-14T06:34:23.882Z,9.24
2023-04-14T06:36:53.126Z,9.26
2023-04-14T06:41:00.840Z,9.29
2023-04-14T06:43:29.659Z,9.28
2023-04-14T06:45:59.699Z,9.28
2023-04-14T06:48:37.010Z,9.29
2023-04-14T06:51:07.752Z,9.27
2023-04-14T06:53:36.601Z,9.17
2023-04-14T06:56:08.308Z,9.21
2023-04-14T06:58:37.274Z,9.12
2023-04-14T07:01:06.247Z,9.11
2023-04-14T07:06:17.354Z,9.09
2023-04-14T07:08:51.316Z,9.12
2023-04-14T07:11:21.609Z,9.03
2023-04-14T07:13:51.137Z,9.03
2023-04-14T07:16:51.159Z,9.10
2023-04-14T07:19:20.524Z,8.98
2023-04-14T07:21:49.904Z,8.94
2023-04-14T07:24:25.084Z,8.92
2023-04-14T07:26:56.262Z,9.01
2023-04-14T07:29:27.278Z,8.99
2023-04-14T07:31:56.789Z,8.98
2023-04-14T07:34:25.679Z,9.04
2023-04-14T07:37:46.143Z,9.18
2023-04-14T07:40:15.257Z,9.23
2023-04-14T07:42:45.841Z,9.26
2023-04-14T07:45:14.846Z,9.29
2023-04-14T07:47:43.853Z,9.20
2023-04-14T07:50:32.064Z,9.21
2023-04-14T07:53:01.052Z,9.17
2023-04-14T07:55:29.847Z,9.12
2023-04-14T07:58:02.148Z,9.01
2023-04-14T08:00:31.941Z,9.00
2023-04-14T08:03:01.599Z,8.97
2023-04-14T08:05:52.676Z,8.97
2023-04-14T08:09:01.736Z,8.99
2023-04-14T08:11:31.505Z,8.90
2023-04-14T08:14:02.149Z,8.98
2023-04-14T08:16:31.420Z,8.99
2023-04-14T08:19:00.762Z,9.01
2023-04-14T08:21:29.869Z,8.94
2023-04-14T08:23:58.638Z,8.98
2023-04-14T08:26:28.664Z,9.02
2023-04-14T08:29:02.963Z,8.92
2023-04-14T08:31:55.859Z,8.93
2023-04-14T08:34:29.015Z,8.94
2023-04-14T08:37:00.569Z,9.03
2023-04-14T08:39:38.635Z,8.98
2023-04-14T08:42:10.645Z,8.95
2023-04-14T08:44:41.406Z,8.80
2023-04-14T08:48:06.051Z,8.83
2023-04-14T08:50:42.559Z,8.82
2023-04-14T08:53:12.015Z,8.75
2023-04-14T08:55:42.667Z,8.86
2023-04-14T08:58:12.539Z,8.82
2023-04-14T09:01:05.361Z,8.71
2023-04-14T09:04:55.519Z,8.74
2023-04-14T09:07:27.720Z,8.69
2023-04-14T09:10:50.393Z,8.68
2023-04-14T09:14:09.294Z,8.65
2023-04-14T09:16:48.904Z,8.59
2023-04-14T09:19:18.333Z,8.63
2023-04-14T09:22:16.124Z,8.54
2023-04-14T09:24:45.857Z,8.60
2023-04-14T09:28:05.613Z,8.62
2023-04-14T09:30:35.409Z,8.66
2023-04-14T09:33:08.688Z,8.60
2023-04-14T09:35:48.665Z,8.67
2023-04-14T09:38:42.993Z,8.58
2023-04-14T09:41:18.434Z,8.59
2023-04-14T09:43:47.427Z,8.49
2023-04-14T09:46:58.120Z,8.51
2023-04-14T09:49:31.320Z,8.45
2023-04-14T09:52:08.296Z,8.47
2023-04-14T09:55:11.526Z,8.41
2023-04-14T09:57:45.101Z,8.44
2023-04-14T10:00:22.723Z,8.37
2023-04-14T10:02:56.522Z,8.36
2023-04-14T10:05:31.055Z,8.40
2023-04-14T10:08:05.428Z,8.45
2023-04-14T10:10:40.139Z,8.42
2023-04-14T10:13:19.523Z,8.43
2023-04-14T10:15:52.268Z,8.43
2023-04-14T10:18:22.169Z,8.44
2023-04-14T10:20:54.488Z,8.41
2023-04-14T10:23:23.890Z,8.40
2023-04-14T10:25:53.821Z,8.36
2023-04-14T10:28:24.009Z,8.39
2023-04-14T10:30:55.892Z,8.42
2023-04-14T10:33:26.934Z,8.36
2023-04-14T10:36:02.181Z,8.39
2023-04-14T10:38:47.421Z,8.36
2023-04-14T10:42:12.218Z,8.34
2023-04-14T10:48:56.886Z,8.27
2023-04-14T10:52:39.394Z,8.21
2023-04-14T10:55:12.394Z,8.27
2023-04-14T10:59:03.355Z,8.29
2023-04-14T11:02:00.429Z,8.37
2023-04-14T11:05:05.269Z,8.50
2023-04-14T11:08:01.597Z,8.43
2023-04-14T11:10:48.746Z,8.43
2023-04-14T11:13:18.216Z,8.50
2023-04-14T11:15:58.162Z,8.54
2023-04-14T11:18:45.310Z,8.52
2023-04-14T11:21:18.212Z,8.55
2023-04-14T11:23:48.179Z,8.62
2023-04-14T11:26:44.384Z,8.61
2023-04-14T11:29:13.417Z,8.62
2023-04-14T11:31:49.285Z,8.63
2023-04-14T11:34:25.768Z,8.66
2023-04-14T11:37:05.344Z,8.69
2023-04-14T11:40:56.843Z,8.64
2023-04-14T11:43:49.077Z,8.56
2023-04-14T11:46:22.249Z,8.59
2023-04-14T11:48:57.352Z,8.57
2023-04-14T11:51:33.896Z,8.53
2023-04-14T11:54:03.569Z,8.54
2023-04-14T11:56:34.884Z,8.50
2023-04-14T11:59:06.791Z,8.57
2023-04-14T12:01:35.985Z,8.58
2023-04-14T12:04:17.819Z,8.60
2023-04-14T12:07:21.118Z,8.60
2023-04-14T12:14:35.558Z,8.58
2023-04-14T12:18:30.614Z,8.57
2023-04-14T12:21:34.522Z,8.60
2023-04-14T12:24:12.869Z,8.57
2023-04-14T12:26:46.276Z,8.60
2023-04-14T12:29:31.300Z,8.70
2023-04-14T12:32:02.366Z,8.73
2023-04-14T12:34:31.912Z,8.73
2023-04-14T12:37:12.276Z,8.75
2023-04-14T12:39:58.316Z,8.77
2023-04-14T12:42:43.985Z,8.81
2023-04-14T12:45:21.915Z,8.76
2023-04-14T12:48:45.180Z,8.73
2023-04-14T12:51:20.645Z,8.76
2023-04-14T12:53:53.722Z,8.89
2023-04-14T12:58:05.098Z,8.89
2023-04-14T13:00:34.208Z,8.90
2023-04-14T13:03:04.001Z,8.89
2023-04-14T13:05:33.456Z,8.89
2023-04-14T13:08:33.484Z,8.81
2023-04-14T13:11:12.648Z,8.80
2023-04-14T13:13:44.603Z,8.82
2023-04-14T13:16:20.361Z,8.77
2023-04-14T13:18:56.700Z,8.79
2023-04-14T13:22:16.713Z,8.84
2023-04-14T13:24:47.653Z,8.89
2023-04-14T13:27:20.863Z,8.86
2023-04-14T13:29:49.942Z,8.85
2023-04-14T13:37:32.191Z,8.85
2023-04-14T13:40:41.658Z,8.75
2023-04-14T13:46:41.188Z,8.82
2023-04-14T13:50:17.365Z,8.94
2023-04-14T13:52:36.447Z,8.98
2023-04-14T13:55:08.216Z,9.01
2023-04-14T13:57:38.554Z,8.93
2023-04-14T14:00:16.606Z,8.92
2023-04-14T14:02:46.842Z,8.84
2023-04-14T14:05:28.572Z,8.80
2023-04-14T14:08:38.161Z,8.83
2023-04-14T14:11:20.365Z,8.86
2023-04-14T14:13:53.068Z,8.85
2023-04-14T14:23:34.096Z,8.78
2023-04-14T14:26:42.109Z,8.73
2023-04-14T14:29:25.083Z,8.77
2023-04-14T14:31:56.604Z,8.80
2023-04-14T14:34:25.779Z,8.80
2023-04-14T14:36:59.340Z,8.83
2023-04-14T14:40:31.465Z,8.86
2023-04-14T14:47:20.130Z,9.03
2023-04-14T14:49:59.984Z,9.04
2023-04-14T14:52:34.080Z,9.02
2023-04-14T14:55:04.686Z,9.01
2023-04-14T14:57:34.096Z,8.98
2023-04-14T15:00:03.766Z,8.96
2023-04-14T15:02:35.388Z,8.96
2023-04-14T15:05:04.839Z,8.90
2023-04-14T15:07:35.159Z,8.90
2023-04-14T15:10:08.552Z,8.91
2023-04-14T15:12:37.484Z,8.93
2023-04-14T15:15:13.434Z,8.89
2023-04-14T15:17:46.100Z,8.86
2023-04-14T15:20:15.738Z,8.84
2023-04-14T15:24:08.846Z,8.82
2023-04-14T15:26:38.095Z,8.75
2023-04-14T15:29:09.211Z,8.76
2023-04-14T15:31:38.939Z,8.72
2023-04-14T15:34:38.835Z,8.74
2023-04-14T15:37:07.784Z,8.69
2023-04-14T15:40:01.182Z,8.62
2023-04-14T15:42:33.764Z,8.62
2023-04-14T15:45:03.434Z,8.58
2023-04-14T15:47:32.364Z,8.59
2023-04-14T15:50:09.112Z,8.61
2023-04-14T15:52:40.147Z,8.61
2023-04-14T15:55:11.410Z,8.60
2023-04-14T16:02:11.465Z,8.60
2023-04-14T16:04:40.872Z,8.58
2023-04-14T16:07:11.342Z,8.59
2023-04-14T16:09:40.583Z,8.55
2023-04-14T16:12:10.097Z,8.51
2023-04-14T16:14:38.863Z,8.52
2023-04-14T16:17:07.739Z,8.54
2023-04-14T16:21:13.989Z,8.59
2023-04-14T16:25:06.441Z,8.55
2023-04-14T16:32:26.028Z,8.50
2023-04-14T16:34:54.927Z,8.47
2023-04-14T16:37:26.035Z,8.49
2023-04-14T16:40:11.679Z,8.45
2023-04-14T16:42:40.992Z,8.43
2023-04-14T16:45:11.047Z,8.48
2023-04-14T16:48:07.596Z,8.42
2023-04-14T16:50:40.343Z,8.44
2023-04-14T16:53:12.520Z,8.37
2023-04-14T16:57:10.904Z,8.41
2023-04-14T16:59:40.004Z,8.32
2023-04-14T17:03:07.606Z,8.32
2023-04-14T17:05:36.690Z,8.25
2023-04-14T17:08:06.040Z,8.24
2023-04-14T17:10:34.861Z,8.20
2023-04-14T17:13:04.187Z,8.24
2023-04-14T17:15:39.566Z,8.12
2023-04-14T17:18:25.251Z,8.14
2023-04-14T17:20:57.173Z,8.07
2023-04-14T17:23:52.516Z,8.12
2023-04-14T17:26:21.822Z,8.12
2023-04-14T17:29:09.706Z,8.17
2023-04-14T17:31:46.656Z,8.18
2023-04-14T17:34:49.001Z,8.19
2023-04-14T17:37:37.206Z,8.26
2023-04-14T17:40:09.041Z,8.24
2023-04-14T17:42:38.776Z,8.16
2023-04-14T17:46:05.167Z,8.20
2023-04-14T17:48:41.597Z,8.22
2023-04-14T17:51:39.820Z,8.16
2023-04-14T17:54:09.026Z,8.13
2023-04-14T17:56:51.063Z,8.15
2023-04-14T17:59:33.543Z,8.11
2023-04-14T18:02:04.054Z,8.15
2023-04-14T18:04:48.041Z,8.10
2023-04-14T18:08:07.751Z,8.11
2023-04-14T18:11:16.740Z,8.11
2023-04-14T18:14:43.561Z,8.11
2023-04-14T18:17:26.369Z,8.10
2023-04-14T18:20:42.683Z,8.05
2023-04-14T18:29:45.789Z,8.14
2023-04-14T18:34:07.134Z,8.18
2023-04-14T18:37:07.590Z,8.17
2023-04-14T18:40:02.535Z,8.12
2023-04-14T18:44:28.720Z,8.08
2023-04-14T18:58:32.803Z,8.05
2023-04-14T19:05:05.028Z,8.04
2023-04-14T19:08:26.258Z,8.01
2023-04-14T19:15:06.598Z,8.07
2023-04-14T19:18:03.225Z,8.01
2023-04-14T19:20:34.686Z,8.03
2023-04-14T19:23:47.926Z,8.08
2023-04-14T19:26:41.201Z,8.05
2023-04-14T19:29:23.207Z,8.12
2023-04-14T19:31:59.419Z,8.18
2023-04-14T19:34:45.008Z,8.17
2023-04-14T19:37:35.858Z,8.14
2023-04-14T19:40:26.909Z,8.14
2023-04-14T19:43:02.340Z,8.15
2023-04-14T19:46:11.454Z,8.17
2023-04-14T19:52:32.547Z,8.07
2023-04-14T19:55:22.356Z,8.08
2023-04-14T19:59:06.792Z,8.00
2023-04-14T20:01:54.067Z,8.07
2023-04-14T20:08:29.989Z,8.13
2023-04-14T20:12:21.623Z,8.04
2023-04-14T20:15:08.145Z,8.09
2023-04-14T20:22:43.416Z,8.07
2023-04-14T20:26:14.725Z,8.06
2023-04-14T20:29:05.555Z,8.03
2023-04-14T20:31:47.509Z,8.05
2023-04-14T20:34:25.151Z,8.07
2023-04-14T20:37:04.800Z,8.07
2023-04-14T20:42:48.437Z,8.03
2023-04-14T20:45:22.461Z,8.06
2023-04-14T20:47:53.999Z,8.07
2023-04-14T20:50:44.811Z,8.05
2023-04-14T20:53:15.261Z,7.98
2023-04-14T20:55:45.050Z,7.95
2023-04-14T20:58:16.306Z,7.99
2023-04-14T21:00:45.610Z,8.00
2023-04-14T21:03:14.530Z,7.91
2023-04-14T21:05:43.462Z,7.90
2023-04-14T21:08:12.837Z,7.91
2023-04-14T21:11:16.110Z,7.83
2023-04-14T21:15:39.889Z,7.77
2023-04-14T21:16:26.135Z,7.82
2023-04-14T21:18:55.199Z,7.80
2023-04-14T21:21:23.931Z,7.85
2023-04-14T21:23:52.855Z,7.90
2023-04-14T21:26:22.026Z,7.85
2023-04-14T21:28:52.204Z,7.79
2023-04-14T21:31:21.104Z,7.89
2023-04-14T21:33:49.808Z,7.89
2023-04-14T21:36:19.872Z,7.93
2023-04-14T21:38:48.765Z,7.92
2023-04-14T21:41:17.456Z,7.84
2023-04-14T21:43:46.077Z,7.83
2023-04-14T21:46:16.659Z,7.78
2023-04-14T21:48:45.769Z,7.82
2023-04-14T21:51:14.967Z,7.91
2023-04-14T21:53:43.685Z,7.95
2023-04-14T21:56:13.213Z,7.96
2023-04-14T21:58:42.036Z,7.93
2023-04-14T22:01:11.532Z,7.92
2023-04-14T22:03:43.066Z,7.94
2023-04-14T22:06:12.404Z,7.87
2023-04-14T22:08:42.141Z,7.97
2023-04-14T22:11:11.141Z,7.89
2023-04-14T22:13:39.910Z,7.86
2023-04-14T22:16:11.714Z,7.88
2023-04-14T22:18:42.183Z,7.87
2023-04-14T22:21:14.757Z,7.90
2023-04-14T22:23:44.755Z,7.94
2023-04-14T22:26:14.115Z,7.90
2023-04-14T22:28:43.201Z,7.80
2023-04-14T22:31:11.979Z,7.84
2023-04-14T22:33:44.435Z,7.78
2023-04-14T22:36:14.072Z,7.79
2023-04-14T22:38:47.569Z,7.80
2023-04-14T22:41:16.721Z,7.78
2023-04-14T22:43:45.477Z,7.82
2023-04-14T22:46:14.267Z,7.80
2023-04-14T22:48:44.481Z,7.81
2023-04-14T22:51:13.093Z,7.83
2023-04-14T22:53:41.833Z,7.83
2023-04-14T22:56:10.717Z,7.82
2023-04-14T22:58:39.956Z,7.78
2023-04-14T23:01:21.317Z,7.75
2023-04-14T23:03:53.692Z,7.75
2023-04-14T23:06:23.324Z,7.66
2023-04-14T23:08:52.923Z,7.69
2023-04-14T23:11:22.008Z,7.70
2023-04-14T23:13:51.550Z,7.72
2023-04-14T23:16:21.154Z,7.75
2023-04-14T23:18:52.537Z,7.78
2023-04-14T23:21:23.033Z,7.73
2023-04-14T23:23:52.526Z,7.74
2023-04-14T23:26:22.809Z,7.81
2023-04-14T23:28:53.076Z,7.72
2023-04-14T23:31:21.865Z,7.67
2023-04-14T23:33:53.018Z,7.69
2023-04-14T23:36:21.922Z,7.66
2023-04-14T23:38:50.642Z,7.65
2023-04-14T23:41:20.089Z,7.68
2023-04-14T23:43:49.629Z,7.62
2023-04-14T23:46:18.429Z,7.65
2023-04-14T23:48:47.450Z,7.57
2023-04-14T23:51:22.926Z,7.64
2023-04-14T23:53:52.118Z,7.65
2023-04-14T23:56:21.188Z,7.71
2023-04-14T23:58:49.829Z,7.67
